sensor_id;sensor_type;location;lat;lon;timestamp;P1;durP1;ratioP1;P2;durP2;ratioP2
5519;SDS011;2782;52.362;10.012;2022-09-01T00:01:26;1.17;;;0.20;;
5519;SDS011;2782;52.362;10.012;2022-09-01T00:08:09;0.77;;;0.20;;
5519;SDS011;2782;52.362;10.012;2022-09-01T00:14:50;1.00;;;0.20;;
5519;SDS011;2782;52.362;10.012;2022-09-01T00:21:39;0.80;;;0.20;;
5519;SDS011;2782;52.362;10.012;2022-09-01T00:28:24;0.50;;;0.20;;
5519;SDS011;2782;52.362;10.012;2022-09-01T00:35:06;0.40;;;0.20;;
5519;SDS011;2782;52.362;10.012;2022-09-01T00:41:49;0.40;;;0.17;;
5519;SDS011;2782;52.362;10.012;2022-09-01T00:48:31;0.60;;;0.20;;
5519;SDS011;2782;52.362;10.012;2022-09-01T00:55:15;0.40;;;0.20;;
5519;SDS011;2782;52.362;10.012;2022-09-01T01:02:02;0.60;;;0.20;;
5519;SDS011;2782;52.362;10.012;2022-09-01T01:08:45;0.60;;;0.20;;
5519;SDS011;2782;52.362;10.012;2022-09-01T01:15:35;0.60;;;0.20;;
5519;SDS011;2782;52.362;10.012;2022-09-01T01:22:25;0.50;;;0.20;;
5519;SDS011;2782;52.362;10.012;2022-09-01T01:29:31;0.40;;;0.20;;
5519;SDS011;2782;52.362;10.012;2022-09-01T01:36:16;0.60;;;0.20;;
5519;SDS011;2782;52.362;10.012;2022-09-01T01:43:04;0.60;;;0.20;;
5519;SDS011;2782;52.362;10.012;2022-09-01T01:49:48;0.40;;;0.10;;
5519;SDS011;2782;52.362;10.012;2022-09-01T01:56:29;0.50;;;0.20;;
5519;SDS011;2782;52.362;10.012;2022-09-01T02:10:18;0.50;;;0.17;;
5519;SDS011;2782;52.362;10.012;2022-09-01T02:17:00;1.73;;;0.27;;
5519;SDS011;2782;52.362;10.012;2022-09-01T02:23:45;0.40;;;0.20;;
5519;SDS011;2782;52.362;10.012;2022-09-01T02:30:29;0.40;;;0.20;;
5519;SDS011;2782;52.362;10.012;2022-09-01T02:37:12;0.50;;;0.20;;
5519;SDS011;2782;52.362;10.012;2022-09-01T02:43:54;0.43;;;0.10;;
5519;SDS011;2782;52.362;10.012;2022-09-01T02:50:42;0.40;;;0.10;;
5519;SDS011;2782;52.362;10.012;2022-09-01T02:57:24;0.77;;;0.17;;
5519;SDS011;2782;52.362;10.012;2022-09-01T03:04:08;0.50;;;0.10;;
5519;SDS011;2782;52.362;10.012;2022-09-01T03:10:53;0.50;;;0.20;;
5519;SDS011;2782;52.362;10.012;2022-09-01T03:17:35;0.50;;;0.20;;
5519;SDS011;2782;52.362;10.012;2022-09-01T03:24:17;0.40;;;0.20;;
5519;SDS011;2782;52.362;10.012;2022-09-01T03:30:59;0.40;;;0.10;;
5519;SDS011;2782;52.362;10.012;2022-09-01T03:37:41;0.40;;;0.10;;
5519;SDS011;2782;52.362;10.012;2022-09-01T03:44:23;0.50;;;0.20;;
5519;SDS011;2782;52.362;10.012;2022-09-01T03:51:06;0.40;;;0.10;;
5519;SDS011;2782;52.362;10.012;2022-09-01T03:57:48;0.40;;;0.20;;
5519;SDS011;2782;52.362;10.012;2022-09-01T04:04:30;0.40;;;0.20;;
5519;SDS011;2782;52.362;10.012;2022-09-01T04:11:14;0.40;;;0.10;;
5519;SDS011;2782;52.362;10.012;2022-09-01T04:17:57;0.40;;;0.20;;
5519;SDS011;2782;52.362;10.012;2022-09-01T04:24:53;0.50;;;0.10;;
5519;SDS011;2782;52.362;10.012;2022-09-01T04:31:36;0.40;;;0.20;;
5519;SDS011;2782;52.362;10.012;2022-09-01T04:38:19;0.60;;;0.20;;
5519;SDS011;2782;52.362;10.012;2022-09-01T04:45:02;0.50;;;0.20;;
5519;SDS011;2782;52.362;10.012;2022-09-01T04:51:51;4.10;;;1.00;;
5519;SDS011;2782;52.362;10.012;2022-09-01T04:58:33;7.53;;;0.70;;
5519;SDS011;2782;52.362;10.012;2022-09-01T05:05:16;6.90;;;0.87;;
5519;SDS011;2782;52.362;10.012;2022-09-01T05:12:00;9.00;;;1.03;;
5519;SDS011;2782;52.362;10.012;2022-09-01T05:18:50;6.10;;;0.80;;
5519;SDS011;2782;52.362;10.012;2022-09-01T05:25:36;8.37;;;0.70;;
5519;SDS011;2782;52.362;10.012;2022-09-01T05:32:21;15.50;;;0.70;;
5519;SDS011;2782;52.362;10.012;2022-09-01T05:39:05;7.50;;;0.83;;
5519;SDS011;2782;52.362;10.012;2022-09-01T05:45:50;11.37;;;0.60;;
5519;SDS011;2782;52.362;10.012;2022-09-01T05:52:34;31.07;;;2.00;;
5519;SDS011;2782;52.362;10.012;2022-09-01T05:59:18;2.60;;;0.50;;
5519;SDS011;2782;52.362;10.012;2022-09-01T06:06:00;2.60;;;0.67;;
5519;SDS011;2782;52.362;10.012;2022-09-01T06:12:48;10.03;;;0.83;;
5519;SDS011;2782;52.362;10.012;2022-09-01T06:19:32;5.57;;;1.37;;
5519;SDS011;2782;52.362;10.012;2022-09-01T06:26:15;3.80;;;0.50;;
5519;SDS011;2782;52.362;10.012;2022-09-01T06:32:58;12.10;;;1.70;;
5519;SDS011;2782;52.362;10.012;2022-09-01T06:39:41;10.83;;;1.67;;
5519;SDS011;2782;52.362;10.012;2022-09-01T06:46:23;2.87;;;1.30;;
5519;SDS011;2782;52.362;10.012;2022-09-01T06:53:08;6.73;;;1.40;;
5519;SDS011;2782;52.362;10.012;2022-09-01T06:59:50;5.57;;;1.30;;
5519;SDS011;2782;52.362;10.012;2022-09-01T07:06:32;7.37;;;1.07;;
5519;SDS011;2782;52.362;10.012;2022-09-01T07:13:17;3.00;;;1.40;;
5519;SDS011;2782;52.362;10.012;2022-09-01T07:20:03;3.23;;;1.40;;
5519;SDS011;2782;52.362;10.012;2022-09-01T07:26:45;3.50;;;1.37;;
5519;SDS011;2782;52.362;10.012;2022-09-01T07:33:31;11.70;;;1.17;;
5519;SDS011;2782;52.362;10.012;2022-09-01T07:40:13;7.00;;;1.10;;
5519;SDS011;2782;52.362;10.012;2022-09-01T07:46:57;3.87;;;0.80;;
5519;SDS011;2782;52.362;10.012;2022-09-01T07:53:41;2.40;;;1.37;;
5519;SDS011;2782;52.362;10.012;2022-09-01T08:00:24;2.53;;;1.30;;
5519;SDS011;2782;52.362;10.012;2022-09-01T08:07:08;1.93;;;0.77;;
5519;SDS011;2782;52.362;10.012;2022-09-01T08:13:51;2.93;;;1.10;;
5519;SDS011;2782;52.362;10.012;2022-09-01T08:20:34;2.00;;;0.83;;
5519;SDS011;2782;52.362;10.012;2022-09-01T08:27:24;1.80;;;0.80;;
5519;SDS011;2782;52.362;10.012;2022-09-01T08:34:07;2.93;;;0.60;;
5519;SDS011;2782;52.362;10.012;2022-09-01T08:40:52;2.47;;;0.60;;
5519;SDS011;2782;52.362;10.012;2022-09-01T08:47:35;2.80;;;1.07;;
5519;SDS011;2782;52.362;10.012;2022-09-01T08:54:20;2.47;;;0.83;;
5519;SDS011;2782;52.362;10.012;2022-09-01T09:01:06;4.83;;;0.80;;
5519;SDS011;2782;52.362;10.012;2022-09-01T09:07:57;2.00;;;0.70;;
5519;SDS011;2782;52.362;10.012;2022-09-01T09:14:53;6.93;;;0.80;;
5519;SDS011;2782;52.362;10.012;2022-09-01T09:21:49;2.50;;;0.53;;
5519;SDS011;2782;52.362;10.012;2022-09-01T09:28:31;2.00;;;0.50;;
5519;SDS011;2782;52.362;10.012;2022-09-01T09:35:23;2.20;;;0.83;;
5519;SDS011;2782;52.362;10.012;2022-09-01T09:42:09;1.27;;;0.30;;
5519;SDS011;2782;52.362;10.012;2022-09-01T09:49:05;1.33;;;0.53;;
5519;SDS011;2782;52.362;10.012;2022-09-01T09:55:55;0.97;;;0.40;;
5519;SDS011;2782;52.362;10.012;2022-09-01T10:02:39;1.07;;;0.40;;
5519;SDS011;2782;52.362;10.012;2022-09-01T10:09:32;1.37;;;0.40;;
5519;SDS011;2782;52.362;10.012;2022-09-01T10:16:18;1.00;;;0.40;;
5519;SDS011;2782;52.362;10.012;2022-09-01T10:23:05;2.03;;;0.40;;
5519;SDS011;2782;52.362;10.012;2022-09-01T10:29:49;0.50;;;0.30;;
5519;SDS011;2782;52.362;10.012;2022-09-01T10:36:35;0.50;;;0.23;;
5519;SDS011;2782;52.362;10.012;2022-09-01T10:43:24;0.80;;;0.30;;
5519;SDS011;2782;52.362;10.012;2022-09-01T10:50:25;1.17;;;0.30;;
5519;SDS011;2782;52.362;10.012;2022-09-01T10:57:18;1.57;;;0.43;;
5519;SDS011;2782;52.362;10.012;2022-09-01T11:05:08;1.23;;;0.30;;
5519;SDS011;2782;52.362;10.012;2022-09-01T11:19:17;0.83;;;0.20;;
5519;SDS011;2782;52.362;10.012;2022-09-01T11:40:29;11.33;;;0.80;;
5519;SDS011;2782;52.362;10.012;2022-09-01T11:47:13;1.47;;;0.33;;
5519;SDS011;2782;52.362;10.012;2022-09-01T11:53:57;6.10;;;0.20;;
5519;SDS011;2782;52.362;10.012;2022-09-01T12:00:42;3.00;;;0.20;;
5519;SDS011;2782;52.362;10.012;2022-09-01T12:07:24;0.90;;;0.30;;
5519;SDS011;2782;52.362;10.012;2022-09-01T12:14:10;4.40;;;0.20;;
5519;SDS011;2782;52.362;10.012;2022-09-01T12:21:01;1.33;;;0.30;;
5519;SDS011;2782;52.362;10.012;2022-09-01T12:27:46;1.17;;;0.30;;
5519;SDS011;2782;52.362;10.012;2022-09-01T12:34:36;1.87;;;0.43;;
5519;SDS011;2782;52.362;10.012;2022-09-01T12:41:24;1.30;;;0.27;;
5519;SDS011;2782;52.362;10.012;2022-09-01T12:48:22;1.00;;;0.40;;
5519;SDS011;2782;52.362;10.012;2022-09-01T12:55:11;0.93;;;0.20;;
5519;SDS011;2782;52.362;10.012;2022-09-01T13:01:58;0.50;;;0.20;;
5519;SDS011;2782;52.362;10.012;2022-09-01T13:09:06;0.60;;;0.30;;
5519;SDS011;2782;52.362;10.012;2022-09-01T13:15:49;0.50;;;0.20;;
5519;SDS011;2782;52.362;10.012;2022-09-01T13:22:33;3.70;;;0.20;;
5519;SDS011;2782;52.362;10.012;2022-09-01T13:29:16;0.47;;;0.20;;
5519;SDS011;2782;52.362;10.012;2022-09-01T13:35:58;2.30;;;0.30;;
5519;SDS011;2782;52.362;10.012;2022-09-01T13:42:41;0.50;;;0.20;;
5519;SDS011;2782;52.362;10.012;2022-09-01T13:49:22;0.60;;;0.20;;
5519;SDS011;2782;52.362;10.012;2022-09-01T13:56:04;3.03;;;0.30;;
5519;SDS011;2782;52.362;10.012;2022-09-01T14:02:48;0.50;;;0.20;;
5519;SDS011;2782;52.362;10.012;2022-09-01T14:09:33;0.50;;;0.20;;
5519;SDS011;2782;52.362;10.012;2022-09-01T14:16:14;0.50;;;0.20;;
5519;SDS011;2782;52.362;10.012;2022-09-01T14:22:57;0.80;;;0.20;;
5519;SDS011;2782;52.362;10.012;2022-09-01T14:29:39;0.60;;;0.30;;
5519;SDS011;2782;52.362;10.012;2022-09-01T14:36:21;1.00;;;0.30;;
5519;SDS011;2782;52.362;10.012;2022-09-01T14:43:07;0.50;;;0.30;;
5519;SDS011;2782;52.362;10.012;2022-09-01T14:49:51;0.70;;;0.30;;
5519;SDS011;2782;52.362;10.012;2022-09-01T14:56:33;0.40;;;0.20;;
5519;SDS011;2782;52.362;10.012;2022-09-01T15:03:16;2.77;;;0.20;;
5519;SDS011;2782;52.362;10.012;2022-09-01T15:09:58;0.60;;;0.20;;
5519;SDS011;2782;52.362;10.012;2022-09-01T15:16:39;0.50;;;0.20;;
5519;SDS011;2782;52.362;10.012;2022-09-01T15:23:23;1.30;;;0.20;;
5519;SDS011;2782;52.362;10.012;2022-09-01T15:30:06;1.63;;;0.23;;
5519;SDS011;2782;52.362;10.012;2022-09-01T15:36:54;48.83;;;33.23;;
5519;SDS011;2782;52.362;10.012;2022-09-01T15:43:37;226.10;;;101.43;;
5519;SDS011;2782;52.362;10.012;2022-09-01T15:50:20;220.97;;;102.73;;
5519;SDS011;2782;52.362;10.012;2022-09-01T15:57:03;22.03;;;11.50;;
5519;SDS011;2782;52.362;10.012;2022-09-01T16:03:46;0.97;;;0.70;;
5519;SDS011;2782;52.362;10.012;2022-09-01T16:10:28;4.47;;;0.60;;
5519;SDS011;2782;52.362;10.012;2022-09-01T16:17:11;1.17;;;0.30;;
5519;SDS011;2782;52.362;10.012;2022-09-01T16:24:03;6.40;;;0.50;;
5519;SDS011;2782;52.362;10.012;2022-09-01T16:30:48;2.87;;;0.30;;
5519;SDS011;2782;52.362;10.012;2022-09-01T16:37:35;0.90;;;0.20;;
5519;SDS011;2782;52.362;10.012;2022-09-01T16:44:28;1.00;;;0.30;;
5519;SDS011;2782;52.362;10.012;2022-09-01T16:51:20;2.20;;;0.30;;
5519;SDS011;2782;52.362;10.012;2022-09-01T16:58:08;2.63;;;0.33;;
5519;SDS011;2782;52.362;10.012;2022-09-01T17:05:02;6.30;;;0.30;;
5519;SDS011;2782;52.362;10.012;2022-09-01T17:11:55;4.50;;;0.43;;
5519;SDS011;2782;52.362;10.012;2022-09-01T17:18:52;3.90;;;0.97;;
5519;SDS011;2782;52.362;10.012;2022-09-01T17:25:38;4.73;;;0.30;;
5519;SDS011;2782;52.362;10.012;2022-09-01T17:32:31;4.47;;;0.30;;
5519;SDS011;2782;52.362;10.012;2022-09-01T17:39:27;2.23;;;0.20;;
5519;SDS011;2782;52.362;10.012;2022-09-01T17:46:20;4.00;;;0.30;;
5519;SDS011;2782;52.362;10.012;2022-09-01T17:53:09;2.63;;;0.30;;
5519;SDS011;2782;52.362;10.012;2022-09-01T18:00:04;0.70;;;0.20;;
5519;SDS011;2782;52.362;10.012;2022-09-01T18:06:50;2.13;;;0.20;;
5519;SDS011;2782;52.362;10.012;2022-09-01T18:13:39;3.87;;;0.30;;
5519;SDS011;2782;52.362;10.012;2022-09-01T18:20:26;6.23;;;0.30;;
5519;SDS011;2782;52.362;10.012;2022-09-01T18:27:13;2.70;;;0.20;;
5519;SDS011;2782;52.362;10.012;2022-09-01T18:33:58;0.50;;;0.20;;
5519;SDS011;2782;52.362;10.012;2022-09-01T18:40:56;2.93;;;0.30;;
5519;SDS011;2782;52.362;10.012;2022-09-01T18:47:47;7.37;;;0.30;;
5519;SDS011;2782;52.362;10.012;2022-09-01T18:54:39;4.97;;;0.30;;
5519;SDS011;2782;52.362;10.012;2022-09-01T19:01:26;0.97;;;0.20;;
5519;SDS011;2782;52.362;10.012;2022-09-01T19:08:17;2.30;;;0.20;;
5519;SDS011;2782;52.362;10.012;2022-09-01T19:15:06;1.40;;;0.40;;
5519;SDS011;2782;52.362;10.012;2022-09-01T19:21:54;3.90;;;0.30;;
5519;SDS011;2782;52.362;10.012;2022-09-01T19:28:40;1.60;;;0.30;;
5519;SDS011;2782;52.362;10.012;2022-09-01T19:35:25;2.07;;;0.30;;
5519;SDS011;2782;52.362;10.012;2022-09-01T19:42:10;1.80;;;0.20;;
5519;SDS011;2782;52.362;10.012;2022-09-01T19:49:03;0.87;;;0.30;;
5519;SDS011;2782;52.362;10.012;2022-09-01T19:55:52;1.00;;;0.30;;
5519;SDS011;2782;52.362;10.012;2022-09-01T20:02:40;1.00;;;0.33;;
5519;SDS011;2782;52.362;10.012;2022-09-01T20:09:33;3.20;;;0.50;;
5519;SDS011;2782;52.362;10.012;2022-09-01T20:16:21;2.97;;;0.20;;
5519;SDS011;2782;52.362;10.012;2022-09-01T20:23:07;5.70;;;0.30;;
5519;SDS011;2782;52.362;10.012;2022-09-01T20:29:57;2.67;;;0.50;;
5519;SDS011;2782;52.362;10.012;2022-09-01T20:36:42;3.33;;;0.37;;
5519;SDS011;2782;52.362;10.012;2022-09-01T20:43:29;0.87;;;0.27;;
5519;SDS011;2782;52.362;10.012;2022-09-01T20:50:17;1.33;;;0.40;;
5519;SDS011;2782;52.362;10.012;2022-09-01T20:57:02;11.60;;;0.80;;
5519;SDS011;2782;52.362;10.012;2022-09-01T21:03:57;4.37;;;0.40;;
5519;SDS011;2782;52.362;10.012;2022-09-01T21:10:50;10.40;;;0.67;;
5519;SDS011;2782;52.362;10.012;2022-09-01T21:17:40;1.00;;;0.50;;
5519;SDS011;2782;52.362;10.012;2022-09-01T21:24:26;1.97;;;0.30;;
5519;SDS011;2782;52.362;10.012;2022-09-01T21:31:09;1.43;;;0.30;;
5519;SDS011;2782;52.362;10.012;2022-09-01T21:37:51;0.70;;;0.20;;
5519;SDS011;2782;52.362;10.012;2022-09-01T21:44:33;0.87;;;0.30;;
5519;SDS011;2782;52.362;10.012;2022-09-01T21:51:17;0.90;;;0.30;;
5519;SDS011;2782;52.362;10.012;2022-09-01T21:57:59;3.83;;;0.33;;
5519;SDS011;2782;52.362;10.012;2022-09-01T22:04:41;4.47;;;0.20;;
5519;SDS011;2782;52.362;10.012;2022-09-01T22:11:24;1.43;;;0.37;;
5519;SDS011;2782;52.362;10.012;2022-09-01T22:18:07;0.70;;;0.20;;
5519;SDS011;2782;52.362;10.012;2022-09-01T22:24:49;3.50;;;0.33;;
5519;SDS011;2782;52.362;10.012;2022-09-01T22:31:32;1.00;;;0.30;;
5519;SDS011;2782;52.362;10.012;2022-09-01T22:38:16;2.30;;;0.40;;
5519;SDS011;2782;52.362;10.012;2022-09-01T22:44:59;0.80;;;0.40;;
5519;SDS011;2782;52.362;10.012;2022-09-01T22:51:42;0.83;;;0.30;;
5519;SDS011;2782;52.362;10.012;2022-09-01T22:58:24;0.50;;;0.20;;
5519;SDS011;2782;52.362;10.012;2022-09-01T23:05:06;1.03;;;0.40;;
5519;SDS011;2782;52.362;10.012;2022-09-01T23:11:49;4.83;;;0.30;;
5519;SDS011;2782;52.362;10.012;2022-09-01T23:18:32;1.27;;;0.20;;
5519;SDS011;2782;52.362;10.012;2022-09-01T23:25:15;5.30;;;0.30;;
5519;SDS011;2782;52.362;10.012;2022-09-01T23:31:58;1.17;;;0.30;;
5519;SDS011;2782;52.362;10.012;2022-09-01T23:38:40;1.27;;;0.50;;
5519;SDS011;2782;52.362;10.012;2022-09-01T23:45:21;0.73;;;0.30;;
5519;SDS011;2782;52.362;10.012;2022-09-01T23:52:04;1.70;;;0.40;;
5519;SDS011;2782;52.362;10.012;2022-09-01T23:58:46;2.10;;;0.30;;
